createdAt,value
2019-02-28T00:00:52.835Z,18.78
2019-02-28T00:06:47.840Z,20.49
2019-02-28T00:12:45.195Z,22.53
2019-02-28T00:18:37.838Z,16.65
2019-02-28T00:24:32.900Z,20.54
2019-02-28T00:30:27.846Z,19.48
2019-02-28T00:36:22.855Z,17.31
2019-02-28T00:42:18.347Z,25.39
2019-02-28T00:48:12.862Z,21.96
2019-02-28T00:54:08.498Z,25.25
2019-02-28T01:00:05.373Z,27.82
2019-02-28T01:05:57.883Z,30.19
2019-02-28T01:11:52.919Z,30.13
2019-02-28T01:17:47.881Z,33.53
2019-02-28T01:23:42.879Z,36.33
2019-02-28T01:29:37.913Z,34.11
2019-02-28T01:35:32.933Z,40.6
2019-02-28T01:41:27.871Z,41.63
2019-02-28T01:47:22.895Z,41.55
2019-02-28T01:53:19.485Z,49.46
2019-02-28T01:59:12.929Z,49.36
2019-02-28T02:05:07.983Z,61.58
2019-02-28T02:11:02.972Z,71.29
2019-02-28T02:16:58.195Z,63.86
2019-02-28T02:22:52.913Z,68.05
2019-02-28T02:28:47.915Z,53.33
2019-02-28T02:34:42.932Z,50.54
2019-02-28T02:40:37.954Z,60.63
2019-02-28T02:46:32.942Z,50.66
2019-02-28T02:52:30.350Z,51.87
2019-02-28T02:58:26.502Z,58.89
2019-02-28T03:04:22.816Z,61.89
2019-02-28T03:10:17.217Z,60.45
2019-02-28T03:16:07.935Z,50.38
2019-02-28T03:22:02.967Z,38.48
2019-02-28T03:27:57.950Z,42.46
2019-02-28T03:33:53.017Z,41.82
2019-02-28T03:39:47.967Z,45.52
2019-02-28T03:45:43.012Z,42.36
2019-02-28T03:51:37.972Z,46.59
2019-02-28T03:57:32.965Z,38.98
2019-02-28T04:03:33.278Z,47.11
2019-02-28T04:09:23.051Z,48.39
2019-02-28T04:15:17.983Z,62.53
2019-02-28T04:21:12.998Z,66.77
2019-02-28T04:27:08.007Z,67.54
2019-02-28T04:33:02.974Z,68.27
2019-02-28T04:38:58.005Z,61.97
2019-02-28T04:44:53.002Z,66.85
2019-02-28T04:50:47.986Z,67.98
2019-02-28T04:56:45.465Z,61.51
2019-02-28T05:02:37.999Z,64.04
2019-02-28T05:08:33.065Z,68.15
2019-02-28T05:14:28.005Z,64.72
2019-02-28T05:20:23.043Z,61.27
2019-02-28T05:26:18.043Z,55.4
2019-02-28T05:32:13.043Z,53.88
2019-02-28T05:38:08.026Z,49.34
2019-02-28T05:44:03.157Z,57.69
2019-02-28T05:49:58.011Z,60.17
2019-02-28T05:55:53.036Z,57.44
2019-02-28T06:01:48.035Z,65.7
2019-02-28T06:07:43.027Z,53.07
2019-02-28T06:13:38.069Z,52.77
2019-02-28T06:19:33.150Z,49.86
2019-02-28T06:25:28.046Z,55.07
2019-02-28T06:31:23.050Z,58.1
2019-02-28T06:37:18.083Z,69.68
2019-02-28T06:43:14.174Z,73.86
2019-02-28T06:49:08.084Z,75.72
2019-02-28T06:55:03.049Z,80.85
2019-02-28T07:00:58.061Z,80.69
2019-02-28T07:06:53.067Z,74.09
2019-02-28T07:12:48.137Z,77.48
2019-02-28T07:18:43.088Z,75.2
2019-02-28T07:24:38.227Z,69.93
2019-02-28T07:30:33.077Z,73.86
2019-02-28T07:36:28.083Z,70.93
2019-02-28T07:42:23.258Z,73.33
2019-02-28T07:48:18.172Z,75.05
2019-02-28T07:54:15.795Z,83.39
2019-02-28T08:00:08.102Z,74.5
2019-02-28T08:06:04.732Z,56.52
2019-02-28T08:11:58.153Z,47.46
2019-02-28T08:17:53.142Z,55.87
2019-02-28T08:23:48.184Z,54.99
2019-02-28T08:29:45.594Z,45.81
2019-02-28T08:35:38.120Z,52.69
2019-02-28T08:41:33.130Z,47.19
2019-02-28T08:47:28.182Z,44.53
2019-02-28T08:53:23.141Z,52.54
2019-02-28T08:59:19.597Z,53.1
2019-02-28T09:05:13.231Z,51.88
2019-02-28T09:11:08.158Z,56.82
2019-02-28T09:17:03.145Z,56.55
2019-02-28T09:23:01.488Z,53.16
2019-02-28T09:28:53.173Z,57.47
2019-02-28T09:34:48.150Z,58.97
2019-02-28T09:40:43.160Z,53.87
2019-02-28T09:46:38.180Z,64
2019-02-28T09:52:33.154Z,61.57
2019-02-28T09:58:29.167Z,63.49
2019-02-28T10:04:23.190Z,63.84
2019-02-28T10:10:20.752Z,57.13
2019-02-28T10:16:13.530Z,51.32
2019-02-28T10:22:10.045Z,53.21
2019-02-28T10:28:03.197Z,57.88
2019-02-28T10:33:58.187Z,62.38
2019-02-28T10:39:53.227Z,64.76
2019-02-28T10:45:48.200Z,78.35
2019-02-28T10:51:44.605Z,80.03
2019-02-28T10:57:40.383Z,69.06
2019-02-28T11:03:33.319Z,80.82
2019-02-28T11:09:28.271Z,76.94
2019-02-28T11:15:23.208Z,97.99
2019-02-28T11:21:18.247Z,90.27
2019-02-28T11:27:13.232Z,98.23
2019-02-28T11:33:08.252Z,85.96
2019-02-28T11:39:03.268Z,94.37
2019-02-28T11:44:58.231Z,92.6
2019-02-28T11:50:53.282Z,89.26
2019-02-28T11:56:48.299Z,92.85
2019-02-28T12:02:43.245Z,86.75
2019-02-28T12:08:38.251Z,80.49
2019-02-28T12:14:33.309Z,86.7
2019-02-28T12:20:28.260Z,85.42
2019-02-28T12:26:23.289Z,87.05
2019-02-28T12:32:18.271Z,80.23
2019-02-28T12:38:13.272Z,75.37
2019-02-28T12:44:08.312Z,68.78
2019-02-28T12:50:03.323Z,65.78
2019-02-28T12:55:58.277Z,57.59
2019-02-28T13:01:53.342Z,62.2
2019-02-28T13:07:48.608Z,64.51
2019-02-28T13:13:43.284Z,112.95
2019-02-28T13:19:38.309Z,60.56
2019-02-28T13:25:33.322Z,60.17
2019-02-28T13:31:28.362Z,69.55
2019-02-28T13:37:23.299Z,65.94
2019-02-28T13:43:20.726Z,63.68
2019-02-28T13:49:15.519Z,66.68
2019-02-28T13:55:08.317Z,62.2
2019-02-28T14:01:03.318Z,74
2019-02-28T14:06:58.335Z,73.23
2019-02-28T14:12:56.848Z,75.31
2019-02-28T14:18:48.334Z,66.12
2019-02-28T14:24:43.351Z,65.72
2019-02-28T14:30:38.340Z,65.76
2019-02-28T14:36:33.377Z,65.91
2019-02-28T14:42:28.396Z,59.88
2019-02-28T14:48:23.348Z,61.93
2019-02-28T14:54:18.385Z,60.53
2019-02-28T15:00:13.370Z,63.31
2019-02-28T15:06:08.365Z,54.65
2019-02-28T15:12:03.376Z,61.4
2019-02-28T15:17:58.384Z,45.93
2019-02-28T15:23:53.407Z,48.39
2019-02-28T15:29:48.365Z,49.29
2019-02-28T15:35:43.412Z,43.74
2019-02-28T15:41:38.385Z,23.43
2019-02-28T15:47:33.389Z,19.55
2019-02-28T15:53:28.411Z,21.26
2019-02-28T15:59:23.442Z,21.66
2019-02-28T16:05:18.441Z,23.29
2019-02-28T16:11:13.429Z,19.79
2019-02-28T16:17:08.444Z,19.92
2019-02-28T16:23:03.448Z,20.62
2019-02-28T16:28:58.457Z,24.21
2019-02-28T16:34:53.423Z,18.05
2019-02-28T16:40:48.475Z,20.89
2019-02-28T16:46:46.396Z,23.27
2019-02-28T16:52:39.917Z,20.24
2019-02-28T16:58:33.428Z,20.01
2019-02-28T17:04:28.425Z,23.76
2019-02-28T17:10:23.444Z,30.04
2019-02-28T17:16:18.479Z,21.45
2019-02-28T17:22:13.527Z,21.67
2019-02-28T17:28:08.464Z,29.7
2019-02-28T17:34:03.463Z,25.63
2019-02-28T17:39:58.484Z,22.63
2019-02-28T17:45:53.458Z,24.36
2019-02-28T21:18:53.810Z,30.59
2019-02-28T21:18:53.819Z,37.6
2019-02-28T21:18:53.832Z,35.55
2019-02-28T21:18:53.843Z,35.55
2019-02-28T21:18:53.856Z,35.55
2019-02-28T21:18:53.856Z,35.55
2019-02-28T21:18:53.876Z,35.55
2019-02-28T21:18:53.893Z,35.55
2019-02-28T21:18:53.910Z,35.55
2019-02-28T21:18:53.925Z,35.55
2019-02-28T21:18:53.952Z,35.55
2019-02-28T21:18:53.970Z,35.55
2019-02-28T21:18:54.013Z,35.55
2019-02-28T21:18:54.024Z,35.55
2019-02-28T21:18:54.074Z,35.55
2019-02-28T21:18:54.092Z,35.55
2019-02-28T21:18:54.110Z,35.55
2019-02-28T21:18:54.128Z,35.55
2019-02-28T21:18:54.181Z,35.55
2019-02-28T21:18:54.192Z,35.55
2019-02-28T21:18:54.253Z,35.55
2019-02-28T21:18:54.275Z,35.55
2019-02-28T21:18:54.289Z,35.55
2019-02-28T21:18:54.322Z,35.55
2019-02-28T21:18:54.327Z,35.55
2019-02-28T21:18:54.357Z,0
2019-02-28T21:18:54.365Z,0
2019-02-28T21:18:54.398Z,0
2019-02-28T21:18:54.405Z,0
2019-02-28T21:18:54.470Z,0
2019-02-28T21:18:54.485Z,0
2019-02-28T21:18:54.526Z,0
2019-02-28T21:18:54.565Z,0
2019-02-28T21:18:54.574Z,0
2019-02-28T21:18:54.616Z,0
2019-02-28T21:18:54.638Z,0
2019-02-28T21:24:48.577Z,36.68
2019-02-28T21:30:43.590Z,38.27
2019-02-28T21:36:38.597Z,34.99
2019-02-28T21:42:33.628Z,32.82
2019-02-28T21:48:28.608Z,36.69
2019-02-28T21:54:23.598Z,46.01
2019-02-28T22:00:18.685Z,45.74
2019-02-28T22:06:13.619Z,45.54
2019-02-28T22:12:08.671Z,52.48
2019-02-28T22:18:03.639Z,45.86
2019-02-28T22:23:58.603Z,43.44
2019-02-28T22:29:53.636Z,49.57
2019-02-28T22:35:48.682Z,60.27
2019-02-28T22:41:43.635Z,52.26
2019-02-28T22:47:38.648Z,41.54
2019-02-28T22:53:33.664Z,40.58
2019-02-28T22:59:28.629Z,38.46
2019-02-28T23:05:23.697Z,37.62
2019-02-28T23:11:18.651Z,40.26
2019-02-28T23:17:13.660Z,33.27
2019-02-28T23:23:08.673Z,34.6
2019-02-28T23:29:03.692Z,36.32
2019-02-28T23:34:58.676Z,37
2019-02-28T23:40:53.694Z,33.51
2019-02-28T23:46:48.690Z,33.58
2019-02-28T23:52:43.666Z,36.33
2019-02-28T23:58:38.732Z,41.47
